Terminal Aerodrome Forecast
Issued by NWS Binghamton, NY

Home | Current Version | Previous Version | Text Only | Print | Product List | Glossary On
Versions: 1 2 3 4 5 6 7 8 9 10 11 12 13 14 15 16 17 18 19 20 21 22
000
FTUS41 KBGM 020800 AAA
TAFBGM
TAF AMD
KBGM 020804Z 0208/0306 28007KT 4SM BR SCT009 OVC012
     FM021400 30010G20KT P6SM -SHSN BKN025 OVC035
     FM030000 30011KT P6SM BKN040=

USA.gov is the U.S. government's official web portal to all federal, state and local government web resources and services.